Time;durP1;ratioP1;P1;durP2;ratioP2;P2;SDS_P1;SDS_P2;PMS_P1;PMS_P2;Temp;Humidity;BMP_temperature;BMP_pressure;BME280_temperature;BME280_humidity;BME280_pressure;Samples;Min_cycle;Max_cycle;Signal;HPM_P1;HPM_P2
2024/02/28 00:04:29;;;;;;;0.10;0.00;;;2.70;99.90;;;;;;20878865;28;20241;-40
2024/02/28 00:14:31;;;;;;;22.63;3.20;;;2.80;99.90;;;;;;20881110;28;20217;-41
2024/02/28 00:24:33;;;;;;;0.00;0.00;;;2.90;99.90;;;;;;20880621;28;20885;-41
2024/02/28 00:34:34;;;;;;;0.10;0.00;;;2.80;99.90;;;;;;20879378;28;20063;-41
2024/02/28 00:44:36;;;;;;;0.03;0.03;;;2.80;99.90;;;;;;20871973;28;20146;-41
2024/02/28 00:54:38;;;;;;;0.10;0.10;;;2.90;99.90;;;;;;20875997;28;20199;-42
2024/02/28 01:04:41;;;;;;;0.00;0.00;;;3.30;99.90;;;;;;20875924;28;20115;-41
2024/02/28 01:14:43;;;;;;;0.00;0.00;;;3.30;99.90;;;;;;20875994;28;20092;-41
2024/02/28 01:24:44;;;;;;;0.20;0.20;;;2.80;99.90;;;;;;20872823;28;20067;-41
2024/02/28 01:34:46;;;;;;;0.00;0.00;;;2.70;99.90;;;;;;20871375;28;20120;-41
2024/02/28 01:44:48;;;;;;;0.00;0.00;;;2.60;99.90;;;;;;20868221;28;20079;-40
2024/02/28 01:54:50;;;;;;;0.00;0.00;;;2.40;99.90;;;;;;20867352;28;20063;-40
2024/02/28 02:04:54;;;;;;;0.00;0.00;;;2.40;99.90;;;;;;20849245;28;20536;-41
2024/02/28 02:14:56;;;;;;;0.05;0.05;;;2.30;99.90;;;;;;20852079;28;20067;-41
2024/02/28 02:24:57;;;;;;;0.17;0.15;;;2.40;99.90;;;;;;20869462;28;20112;-41
2024/02/28 02:34:59;;;;;;;0.75;0.75;;;2.50;99.90;;;;;;20879392;28;20130;-40
2024/02/28 02:45:01;;;;;;;60.72;8.68;;;2.30;99.90;;;;;;20883381;28;21131;-40
2024/02/28 02:55:03;;;;;;;0.00;0.00;;;2.30;99.90;;;;;;20883776;28;22319;-44
2024/02/28 03:05:06;;;;;;;0.00;0.00;;;2.00;99.90;;;;;;20884162;28;20148;-40
2024/02/28 03:15:08;;;;;;;0.00;0.00;;;2.10;99.90;;;;;;20885482;28;20114;-40
2024/02/28 03:25:10;;;;;;;0.00;0.00;;;2.10;99.90;;;;;;20882893;28;20650;-40
2024/02/28 03:35:12;;;;;;;0.20;0.00;;;2.20;99.90;;;;;;20883556;28;20120;-39
2024/02/28 03:45:13;;;;;;;0.13;0.00;;;2.30;99.90;;;;;;20878540;28;20210;-40
2024/02/28 03:55:16;;;;;;;0.00;0.00;;;2.30;99.90;;;;;;20878560;28;20063;-41
2024/02/28 04:05:17;;;;;;;4.15;1.90;;;2.40;99.90;;;;;;20879486;28;20082;-40
2024/02/28 04:15:19;;;;;;;0.03;0.03;;;2.30;99.90;;;;;;20875330;28;20063;-48
2024/02/28 04:25:21;;;;;;;26.10;2.85;;;2.40;99.90;;;;;;20876998;28;20059;-40
2024/02/28 04:35:23;;;;;;;0.10;0.10;;;2.30;99.90;;;;;;20876364;28;20146;-40
2024/02/28 04:45:25;;;;;;;0.10;0.00;;;2.40;99.90;;;;;;20874577;28;20243;-40
2024/02/28 04:55:27;;;;;;;1.30;1.17;;;2.50;99.90;;;;;;20875379;28;20165;-39
2024/02/28 05:05:28;;;;;;;6.22;1.00;;;2.60;99.90;;;;;;20871972;28;21367;-40
2024/02/28 05:15:30;;;;;;;0.10;0.08;;;2.60;99.90;;;;;;20873635;28;20119;-41
2024/02/28 05:25:32;;;;;;;0.00;0.00;;;2.20;99.90;;;;;;20869480;28;20181;-40
2024/02/28 05:35:34;;;;;;;1.67;1.58;;;2.10;99.90;;;;;;20772567;28;20330;-40
2024/02/28 05:45:36;;;;;;;0.00;0.00;;;2.10;99.90;;;;;;20775444;28;20056;-41
2024/02/28 05:55:38;;;;;;;0.13;0.00;;;2.30;99.90;;;;;;20775308;28;20151;-40
2024/02/28 06:05:40;;;;;;;0.38;0.28;;;2.30;99.90;;;;;;20783061;28;20087;-40
2024/02/28 06:15:42;;;;;;;0.32;0.08;;;2.40;99.90;;;;;;20788372;28;20683;-41
2024/02/28 06:25:44;;;;;;;0.00;0.00;;;2.50;99.90;;;;;;20785283;28;20932;-40
2024/02/28 06:35:46;;;;;;;0.90;0.75;;;2.50;99.90;;;;;;20782939;28;20103;-41
2024/02/28 06:45:48;;;;;;;0.00;0.00;;;2.70;99.90;;;;;;20850570;28;20182;-40
2024/02/28 06:55:50;;;;;;;0.10;0.10;;;2.80;99.90;;;;;;20865209;28;20188;-40
2024/02/28 07:05:53;;;;;;;0.13;0.00;;;2.90;99.90;;;;;;20860435;28;20168;-40
2024/02/28 07:15:57;;;;;;;0.38;0.38;;;3.30;99.90;;;;;;20862259;28;20063;-39
2024/02/28 07:25:59;;;;;;;0.15;0.00;;;3.70;99.90;;;;;;20879053;28;20063;-40
2024/02/28 07:36:00;;;;;;;0.00;0.00;;;4.00;99.90;;;;;;20880429;28;21104;-39
2024/02/28 07:46:06;;;;;;;0.43;0.00;;;4.40;99.90;;;;;;20875812;28;20200;-40
2024/02/28 07:56:17;;;;;;;0.52;0.30;;;4.40;99.90;;;;;;20861370;28;21289;-39
2024/02/28 08:06:19;;;;;;;0.00;0.00;;;4.40;99.90;;;;;;20871809;28;20233;-39
2024/02/28 08:16:21;;;;;;;0.30;0.30;;;4.70;99.90;;;;;;20873949;28;20162;-39
2024/02/28 08:26:24;;;;;;;0.52;0.10;;;4.80;99.90;;;;;;20870005;28;20059;-39
2024/02/28 08:36:26;;;;;;;0.10;0.10;;;5.10;99.90;;;;;;20871850;28;21123;-39
2024/02/28 08:46:28;;;;;;;3.00;1.45;;;5.40;99.90;;;;;;20867097;28;20163;-40
2024/02/28 08:56:29;;;;;;;0.52;0.17;;;6.70;99.90;;;;;;20867198;28;21209;-40
2024/02/28 09:06:31;;;;;;;3.47;3.17;;;7.70;99.90;;;;;;20864680;28;20130;-39
2024/02/28 09:16:33;;;;;;;15.57;4.15;;;6.60;99.90;;;;;;20868226;28;20237;-39
2024/02/28 09:26:39;;;;;;;1.08;0.05;;;6.10;99.90;;;;;;20868616;28;20166;-39
2024/02/28 09:36:45;;;;;;;0.00;0.00;;;6.40;99.90;;;;;;20865372;28;20166;-39
2024/02/28 09:46:50;;;;;;;3.20;0.10;;;7.10;99.90;;;;;;20859314;28;20267;-39
2024/02/28 09:56:52;;;;;;;0.17;0.10;;;7.30;99.90;;;;;;20861519;28;20154;-39
2024/02/28 10:06:54;;;;;;;0.10;0.10;;;7.40;99.90;;;;;;20863624;28;20247;-39
2024/02/28 10:16:56;;;;;;;0.65;0.10;;;7.80;99.90;;;;;;20861687;28;20158;-40
2024/02/28 10:27:01;;;;;;;1.08;0.10;;;8.40;99.90;;;;;;20643468;28;20178;-40
2024/02/28 10:37:05;;;;;;;0.35;0.22;;;8.20;99.90;;;;;;20657820;28;20166;-39
2024/02/28 10:47:11;;;;;;;0.52;0.10;;;7.90;99.90;;;;;;20660327;28;20049;-39
2024/02/28 10:57:16;;;;;;;0.70;0.45;;;7.40;99.90;;;;;;20679956;28;20184;-39
2024/02/28 11:07:21;;;;;;;1.65;0.10;;;6.60;99.90;;;;;;20791188;28;20173;-39
2024/02/28 11:17:28;;;;;;;2.40;0.05;;;6.30;99.90;;;;;;20786365;28;21062;-39
2024/02/28 11:27:29;;;;;;;3.65;0.40;;;6.70;99.90;;;;;;20787257;28;20167;-39
2024/02/28 11:37:35;;;;;;;2.95;0.22;;;6.10;99.90;;;;;;20792104;28;20176;-39
2024/02/28 11:47:37;;;;;;;1.95;0.10;;;6.10;99.90;;;;;;20855419;28;20216;-39
2024/02/28 11:57:40;;;;;;;1.80;0.10;;;6.40;99.90;;;;;;20872394;28;20122;-39
2024/02/28 12:07:42;;;;;;;12.32;8.48;;;6.70;99.90;;;;;;20870527;28;20150;-39
2024/02/28 12:17:46;;;;;;;1.15;0.20;;;6.30;99.90;;;;;;20853729;28;20119;-39
2024/02/28 12:27:48;;;;;;;1.85;0.88;;;5.90;99.90;;;;;;20871128;28;20114;-39
2024/02/28 12:37:50;;;;;;;1.35;0.15;;;6.40;99.90;;;;;;20868032;28;20256;-39
2024/02/28 12:47:53;;;;;;;0.45;0.10;;;7.00;99.90;;;;;;20872106;28;21279;-39
2024/02/28 12:57:55;;;;;;;4.47;0.43;;;6.70;99.90;;;;;;20868069;28;20067;-40
2024/02/28 13:07:57;;;;;;;4.80;0.40;;;6.40;99.90;;;;;;20852706;28;20114;-39
2024/02/28 13:18:01;;;;;;;3.17;0.30;;;6.20;99.90;;;;;;20865391;28;20127;-39
2024/02/28 13:28:07;;;;;;;2.72;0.55;;;5.90;99.90;;;;;;20866973;28;20140;-40
2024/02/28 13:38:08;;;;;;;6.68;0.30;;;6.20;99.90;;;;;;20867835;28;20181;-41
2024/02/28 13:48:20;;;;;;;4.25;0.52;;;6.80;99.90;;;;;;20863937;28;20134;-41
2024/02/28 13:58:22;;;;;;;3.55;0.50;;;6.80;99.90;;;;;;20865989;28;20063;-40
2024/02/28 14:08:25;;;;;;;2.25;0.40;;;6.60;99.90;;;;;;20862189;28;21590;-40
2024/02/28 14:18:27;;;;;;;2.58;0.20;;;6.60;99.90;;;;;;20867573;28;20449;-40
2024/02/28 14:28:29;;;;;;;3.50;0.20;;;7.10;99.90;;;;;;20871418;28;20076;-40
2024/02/28 14:38:31;;;;;;;6.13;1.02;;;6.60;99.90;;;;;;20883048;28;20174;-41
2024/02/28 14:48:36;;;;;;;3.95;0.50;;;5.60;99.90;;;;;;20880138;28;20067;-41
2024/02/28 14:58:39;;;;;;;0.73;0.20;;;5.00;99.90;;;;;;20878239;28;20126;-40
2024/02/28 15:08:41;;;;;;;0.47;0.00;;;4.90;99.90;;;;;;20877134;28;20071;-41
2024/02/28 15:18:42;;;;;;;0.65;0.13;;;4.90;99.90;;;;;;20880069;28;20156;-40
2024/02/28 15:28:44;;;;;;;1.27;0.20;;;4.60;99.90;;;;;;20879598;28;20503;-42
2024/02/28 15:38:46;;;;;;;1.98;0.20;;;4.60;99.90;;;;;;20875334;28;20158;-41
2024/02/28 15:48:56;;;;;;;5.32;1.13;;;4.80;99.90;;;;;;20879704;28;20193;-41
2024/02/28 15:58:58;;;;;;;1.90;0.10;;;4.90;99.90;;;;;;20874613;28;20161;-42
2024/02/28 16:09:00;;;;;;;0.75;0.10;;;5.30;99.90;;;;;;20874478;28;20753;-41
2024/02/28 16:19:02;;;;;;;4.57;0.15;;;4.90;99.90;;;;;;20872350;28;21764;-41
2024/02/28 16:29:03;;;;;;;3.38;0.65;;;4.70;99.90;;;;;;20871352;28;21256;-40
2024/02/28 16:39:06;;;;;;;1.17;0.13;;;4.90;99.90;;;;;;20855129;28;20180;-40
2024/02/28 16:49:08;;;;;;;1.77;0.35;;;4.90;99.90;;;;;;20870423;28;20178;-41
2024/02/28 16:59:11;;;;;;;2.38;0.20;;;4.80;99.90;;;;;;20852242;28;20142;-43
2024/02/28 17:09:13;;;;;;;7.32;0.80;;;4.50;99.90;;;;;;20869335;28;20249;-43
2024/02/28 17:19:15;;;;;;;3.97;0.90;;;4.20;99.90;;;;;;20871732;28;20063;-40
2024/02/28 17:29:17;;;;;;;7.22;0.60;;;4.20;99.90;;;;;;20872407;28;20144;-42
2024/02/28 17:39:20;;;;;;;3.97;0.60;;;4.00;99.90;;;;;;20872568;28;20170;-41
2024/02/28 17:49:24;;;;;;;6.47;0.88;;;4.40;99.90;;;;;;20869280;28;20960;-41
2024/02/28 17:59:27;;;;;;;7.32;1.08;;;4.60;99.90;;;;;;20852372;28;20115;-41
2024/02/28 18:09:28;;;;;;;7.38;0.82;;;4.90;99.90;;;;;;20869808;28;20208;-40
2024/02/28 18:19:30;;;;;;;7.00;1.10;;;5.20;99.90;;;;;;20871499;28;20130;-39
2024/02/28 18:29:32;;;;;;;6.63;0.65;;;5.30;99.90;;;;;;20833306;28;20150;-40
2024/02/28 18:39:38;;;;;;;7.80;0.77;;;4.80;99.90;;;;;;20864708;28;20138;-40
2024/02/28 18:49:40;;;;;;;8.25;0.73;;;4.70;99.90;;;;;;20867715;28;20150;-40
2024/02/28 18:59:45;;;;;;;10.15;1.00;;;4.40;99.90;;;;;;20868160;28;20130;-42
2024/02/28 19:09:47;;;;;;;7.55;1.20;;;4.70;99.90;;;;;;20867106;28;21081;-41
2024/02/28 19:19:49;;;;;;;17.13;7.25;;;5.00;99.90;;;;;;20882305;28;20238;-40
2024/02/28 19:29:51;;;;;;;13.90;1.60;;;5.30;99.90;;;;;;20882604;28;20184;-39
2024/02/28 19:39:57;;;;;;;13.82;1.92;;;5.40;99.90;;;;;;20881019;28;20079;-40
2024/02/28 19:50:00;;;;;;;18.77;1.70;;;5.20;99.90;;;;;;20861580;28;20170;-40
2024/02/28 20:00:06;;;;;;;17.35;1.77;;;5.10;99.90;;;;;;20858240;28;21670;-39
2024/02/28 20:10:09;;;;;;;13.05;1.95;;;4.90;99.90;;;;;;20876025;28;20127;-39
2024/02/28 20:20:11;;;;;;;10.77;1.42;;;5.20;99.90;;;;;;20876287;28;21087;-39
2024/02/28 20:30:13;;;;;;;9.75;1.35;;;5.40;99.90;;;;;;20874134;28;20235;-39
2024/02/28 20:40:15;;;;;;;10.73;1.20;;;5.70;99.90;;;;;;20872625;28;20547;-39
2024/02/28 20:50:17;;;;;;;16.67;5.03;;;5.90;99.90;;;;;;20876054;28;20252;-40
2024/02/28 21:00:19;;;;;;;9.75;1.55;;;5.80;99.90;;;;;;20874921;28;20232;-40
2024/02/28 21:10:24;;;;;;;12.68;1.83;;;5.80;99.90;;;;;;20871478;28;20162;-39
2024/02/28 21:20:30;;;;;;;13.73;1.80;;;5.20;99.90;;;;;;20867722;28;20146;-40
2024/02/28 21:30:35;;;;;;;16.70;2.15;;;5.30;99.90;;;;;;20869012;28;20208;-39
2024/02/28 21:40:39;;;;;;;16.75;2.13;;;5.20;99.90;;;;;;20869174;28;21248;-39
2024/02/28 21:50:42;;;;;;;12.23;2.10;;;5.50;99.90;;;;;;20868597;28;21425;-39
2024/02/28 22:00:44;;;;;;;16.50;2.00;;;5.50;99.90;;;;;;20869458;28;21006;-39
2024/02/28 22:10:46;;;;;;;17.55;2.13;;;5.20;99.90;;;;;;20870271;28;21268;-39
2024/02/28 22:20:48;;;;;;;20.58;2.45;;;4.80;99.90;;;;;;20871226;28;20075;-39
2024/02/28 22:30:50;;;;;;;17.05;1.92;;;4.90;99.90;;;;;;20866409;28;20145;-39
2024/02/28 22:40:52;;;;;;;14.70;2.08;;;4.90;99.90;;;;;;20685233;28;21331;-39
2024/02/28 22:50:54;;;;;;;8.93;1.48;;;5.20;99.90;;;;;;20758060;28;20092;-39
2024/02/28 23:00:57;;;;;;;14.25;1.63;;;5.00;99.90;;;;;;20550989;28;20176;-39
2024/02/28 23:10:58;;;;;;;11.27;1.88;;;4.90;99.90;;;;;;20578362;28;20135;-39
2024/02/28 23:21:00;;;;;;;17.35;1.67;;;5.10;99.90;;;;;;20617172;28;20164;-39
2024/02/28 23:31:05;;;;;;;22.55;1.77;;;5.40;99.90;;;;;;20759041;28;20138;-39
2024/02/28 23:41:06;;;;;;;18.90;2.05;;;5.20;99.90;;;;;;20829333;28;20208;-39
2024/02/28 23:51:08;;;;;;;21.20;1.92;;;5.20;99.90;;;;;;20843561;28;20075;-39
